Williston, ND

1:25 AM CST on December 10, 2016 (GMT -0600)
Sloulin International | | Change Station
Active Advisory: Wind Chill Advisory

Elev 1906 ft 48.17 °N, 103.64 °W | Updated 33 minutes ago

Overcast
Overcast
-15 °F
Feels Like -15 °F
N
0
Wind Variable Wind from North

Today
High -- | Low -- °F
--% Chance of Precip.
Yesterday
High -- | Low -- °F
Precip. -- in
Pressure 30.62 in
Visibility 10.0 miles
Clouds Overcast 12000 ft
Dew Point -20 °F
Humidity 78%
Rainfall 0.00 in
Snow Depth Not available.
8:34 AM 5:00 PM
Waxing Gibbous, 81% visible
METAR KISN 100652Z AUTO 00000KT 10SM OVC120 M26/M29 A3041 RMK AO2 SLP367 T12611289
Pressure 30.62 in
Visibility 10.0 miles
Clouds Overcast 12000 ft
Dew Point -20 °F
Humidity 78%
Rainfall 0.00 in
Snow Depth Not available.
8:34 AM 5:00 PM
Waxing Gibbous, 81% visible
METAR KISN 100652Z AUTO 00000KT 10SM OVC120 M26/M29 A3041 RMK AO2 SLP367 T12611289

10-Day Weather Forecast

Almanac

Astronomy

Dec. 10, 2016 Rise Set
Actual Time
Civil Twilight
Nautical Twilight
Astronomical Twilight
Moon
Length of Visible Light
Length of Day
Tomorrow will be .
, % of the Moon is Illuminated

Today's Extremes

State Highs State Lows

Community

WunderPhotos

Upload Photos

1,956,527 photos uploaded!

WunderBlog® & News

Nearby

Air Quality

  Air Quality AQ Index Pollutant
Not available.

Snow Depth

Station Depth Elevation

Earthquake Activity

City Distance Mag. Time & Date
Minimum magnitude displayed is 2.5.

Coastal Water Temperatures

Place Temperature

Stations

Nearby Weather Stations

Station Location Temp. Windchill Dew Point Humidity Wind Precip. Elev Updated Type
                   

Watches & Warnings

Wind Chill Advisory
Issued: 11:11 PM MST Dec. 9, 2016 – National Weather Service

... Wind Chill Advisory remains in effect until noon CST /11 am
MST/ today...

* expect wind chills to range from 25 below zero to 35 below zero
through Saturday morning.

* The cold wind chills will cause frostbite in as little as 30
minutes to exposed skin.

Precautionary/preparedness actions...

Dress warmly and in layers if you need to be outdoors. Make sure
you wear a hat and gloves.



Cjs